Airfield :







YOU CAN JOIN US ON...

 
LOGIN :

Register | Disclaimer

   EN    FR    IT 

 









Legend :    VFR   Marginal VFR   IFR   Intensive IFR   Very Intensive IFR
Visi :
Ceiling :
>= 8 km
>= 3000ft
5 to 8 km
1000 to 3000 ft
1500m to 5 km
500 to 1000 ft
800 to 1500m
200 to 500 ft
< 800m
< 200 ft
Symbols :   Thunderstorms  Fog  Heavy snow  Heavy precipitations  Wind > 20 kt






- Airport Elevation : 160 ft
- IATA code : YYR


CYYR - Goose Bay

CURRENT METAR :
  • 240800Z 29005KT 15SM FEW250 03/M01 A3042 RMK CI1 SLP303

EXPIRED METARs :
  • 240700Z 27005KT 15SM FEW260 03/M01 A3041 RMK CI1 SLP301
  • 240600Z 29006KT 15SM FEW260 04/M01 A3040 RMK CI1 SLP298

TAF TAF CYYR
Valid from the 24 at 06:00 until the 25 at 06:00 UTC


240530Z 2406/2506 29006KT P6SM FEW180 BKN260
BECMG 2414/2416 07006KT
FM241600 07006KT P6SM FEW140 BKN180
FM250000 05006KT P6SM SCT080 BKN120 RMK NXT FCST BY 241200Z
CZQX FIR / North America



MET'MAP, your aeronautical weather chart ! - Copyright ORBIFLY December 2007 - Disclaimer

ORBIFLY MET'MAP TEAM :

Programming & Development : Alexandra Zaïnal
Concept & original design : Baudouin d'Aumeries
Assistance for programming : Marc-Olivier Méhu
Technical & hardware support : Manuel Goepfert

Contact : metmap@orbifly.com




SOURCES & CREDITS :

   NOAA